sensor_id;sensor_type;location;lat;lon;timestamp;P1;durP1;ratioP1;P2;durP2;ratioP2
73158;SDS011;61370;48.594;10.202;2022-07-15T00:01:20;6.72;;;2.40;;
73158;SDS011;61370;48.594;10.202;2022-07-15T00:03:46;5.43;;;2.10;;
73158;SDS011;61370;48.594;10.202;2022-07-15T00:06:12;5.65;;;2.30;;
73158;SDS011;61370;48.594;10.202;2022-07-15T00:08:39;5.35;;;2.42;;
73158;SDS011;61370;48.594;10.202;2022-07-15T00:11:05;4.47;;;2.17;;
73158;SDS011;61370;48.594;10.202;2022-07-15T00:13:32;5.40;;;2.33;;
73158;SDS011;61370;48.594;10.202;2022-07-15T00:15:58;4.38;;;2.50;;
73158;SDS011;61370;48.594;10.202;2022-07-15T00:18:24;4.50;;;2.38;;
73158;SDS011;61370;48.594;10.202;2022-07-15T00:20:51;7.13;;;2.63;;
73158;SDS011;61370;48.594;10.202;2022-07-15T00:23:17;5.07;;;2.63;;
73158;SDS011;61370;48.594;10.202;2022-07-15T00:25:44;6.82;;;2.30;;
73158;SDS011;61370;48.594;10.202;2022-07-15T00:28:10;5.50;;;2.30;;
73158;SDS011;61370;48.594;10.202;2022-07-15T00:30:39;5.03;;;2.15;;
73158;SDS011;61370;48.594;10.202;2022-07-15T00:33:06;5.13;;;2.13;;
73158;SDS011;61370;48.594;10.202;2022-07-15T00:35:33;5.65;;;2.20;;
73158;SDS011;61370;48.594;10.202;2022-07-15T00:38:01;7.35;;;2.30;;
73158;SDS011;61370;48.594;10.202;2022-07-15T00:40:29;4.38;;;1.88;;
73158;SDS011;61370;48.594;10.202;2022-07-15T00:42:55;4.25;;;1.90;;
73158;SDS011;61370;48.594;10.202;2022-07-15T00:45:23;3.60;;;1.70;;
73158;SDS011;61370;48.594;10.202;2022-07-15T00:47:51;5.68;;;1.80;;
73158;SDS011;61370;48.594;10.202;2022-07-15T00:50:22;4.55;;;2.08;;
73158;SDS011;61370;48.594;10.202;2022-07-15T00:52:52;4.90;;;2.05;;
73158;SDS011;61370;48.594;10.202;2022-07-15T00:55:43;3.45;;;1.80;;
73158;SDS011;61370;48.594;10.202;2022-07-15T00:58:13;5.05;;;1.95;;
73158;SDS011;61370;48.594;10.202;2022-07-15T01:00:42;3.67;;;1.85;;
73158;SDS011;61370;48.594;10.202;2022-07-15T01:03:10;4.68;;;2.00;;
73158;SDS011;61370;48.594;10.202;2022-07-15T01:05:38;5.68;;;1.92;;
73158;SDS011;61370;48.594;10.202;2022-07-15T01:08:04;3.70;;;1.65;;
73158;SDS011;61370;48.594;10.202;2022-07-15T01:10:31;4.05;;;1.73;;
73158;SDS011;61370;48.594;10.202;2022-07-15T01:13:01;3.30;;;1.50;;
73158;SDS011;61370;48.594;10.202;2022-07-15T01:15:28;7.07;;;1.70;;
73158;SDS011;61370;48.594;10.202;2022-07-15T01:17:57;3.90;;;1.40;;
73158;SDS011;61370;48.594;10.202;2022-07-15T01:20:25;4.03;;;1.70;;
73158;SDS011;61370;48.594;10.202;2022-07-15T01:22:55;3.42;;;1.35;;
73158;SDS011;61370;48.594;10.202;2022-07-15T01:25:27;4.97;;;1.63;;
73158;SDS011;61370;48.594;10.202;2022-07-15T01:27:53;4.47;;;1.48;;
73158;SDS011;61370;48.594;10.202;2022-07-15T01:30:23;3.78;;;1.70;;
73158;SDS011;61370;48.594;10.202;2022-07-15T01:32:51;3.75;;;1.40;;
73158;SDS011;61370;48.594;10.202;2022-07-15T01:35:18;7.47;;;2.00;;
73158;SDS011;61370;48.594;10.202;2022-07-15T01:37:46;3.92;;;1.70;;
73158;SDS011;61370;48.594;10.202;2022-07-15T01:40:13;3.28;;;1.45;;
73158;SDS011;61370;48.594;10.202;2022-07-15T01:42:41;7.07;;;2.00;;
73158;SDS011;61370;48.594;10.202;2022-07-15T01:45:10;3.47;;;1.58;;
73158;SDS011;61370;48.594;10.202;2022-07-15T01:47:42;4.63;;;1.60;;
73158;SDS011;61370;48.594;10.202;2022-07-15T01:50:19;7.40;;;1.55;;
73158;SDS011;61370;48.594;10.202;2022-07-15T01:52:59;5.10;;;1.50;;
73158;SDS011;61370;48.594;10.202;2022-07-15T01:55:28;5.15;;;1.80;;
73158;SDS011;61370;48.594;10.202;2022-07-15T01:57:55;3.47;;;1.38;;
73158;SDS011;61370;48.594;10.202;2022-07-15T02:00:23;3.55;;;1.60;;
73158;SDS011;61370;48.594;10.202;2022-07-15T02:02:50;5.47;;;2.00;;
73158;SDS011;61370;48.594;10.202;2022-07-15T02:05:20;3.53;;;1.45;;
73158;SDS011;61370;48.594;10.202;2022-07-15T02:07:48;5.85;;;1.70;;
73158;SDS011;61370;48.594;10.202;2022-07-15T02:10:17;5.07;;;1.52;;
73158;SDS011;61370;48.594;10.202;2022-07-15T02:12:48;3.42;;;1.60;;
73158;SDS011;61370;48.594;10.202;2022-07-15T02:15:18;5.10;;;1.70;;
73158;SDS011;61370;48.594;10.202;2022-07-15T02:17:48;3.75;;;1.80;;
73158;SDS011;61370;48.594;10.202;2022-07-15T02:20:15;3.53;;;1.42;;
73158;SDS011;61370;48.594;10.202;2022-07-15T02:22:41;6.20;;;1.42;;
73158;SDS011;61370;48.594;10.202;2022-07-15T02:25:08;4.82;;;1.70;;
73158;SDS011;61370;48.594;10.202;2022-07-15T02:27:36;6.35;;;1.60;;
73158;SDS011;61370;48.594;10.202;2022-07-15T02:30:03;4.88;;;1.50;;
73158;SDS011;61370;48.594;10.202;2022-07-15T02:32:33;4.68;;;1.48;;
73158;SDS011;61370;48.594;10.202;2022-07-15T02:35:00;4.13;;;1.70;;
73158;SDS011;61370;48.594;10.202;2022-07-15T02:37:27;5.90;;;1.48;;
73158;SDS011;61370;48.594;10.202;2022-07-15T02:39:53;3.92;;;1.60;;
73158;SDS011;61370;48.594;10.202;2022-07-15T02:42:20;4.60;;;1.50;;
73158;SDS011;61370;48.594;10.202;2022-07-15T02:44:47;4.28;;;1.33;;
73158;SDS011;61370;48.594;10.202;2022-07-15T02:47:14;3.92;;;1.30;;
73158;SDS011;61370;48.594;10.202;2022-07-15T02:49:40;4.45;;;1.60;;
73158;SDS011;61370;48.594;10.202;2022-07-15T02:52:07;4.25;;;1.48;;
73158;SDS011;61370;48.594;10.202;2022-07-15T02:54:38;3.42;;;1.38;;
73158;SDS011;61370;48.594;10.202;2022-07-15T02:57:05;4.45;;;1.50;;
73158;SDS011;61370;48.594;10.202;2022-07-15T02:59:31;5.25;;;1.55;;
73158;SDS011;61370;48.594;10.202;2022-07-15T03:02:00;3.70;;;1.45;;
73158;SDS011;61370;48.594;10.202;2022-07-15T03:04:26;7.45;;;1.90;;
73158;SDS011;61370;48.594;10.202;2022-07-15T03:06:53;6.18;;;1.50;;
73158;SDS011;61370;48.594;10.202;2022-07-15T03:09:20;4.65;;;1.75;;
73158;SDS011;61370;48.594;10.202;2022-07-15T03:11:46;6.43;;;1.40;;
73158;SDS011;61370;48.594;10.202;2022-07-15T03:14:14;4.22;;;1.80;;
73158;SDS011;61370;48.594;10.202;2022-07-15T03:16:40;4.35;;;1.50;;
73158;SDS011;61370;48.594;10.202;2022-07-15T03:19:07;3.75;;;1.60;;
73158;SDS011;61370;48.594;10.202;2022-07-15T03:21:36;3.97;;;1.50;;
73158;SDS011;61370;48.594;10.202;2022-07-15T03:24:03;3.80;;;1.60;;
73158;SDS011;61370;48.594;10.202;2022-07-15T03:26:30;3.55;;;1.52;;
73158;SDS011;61370;48.594;10.202;2022-07-15T03:28:58;4.57;;;1.80;;
73158;SDS011;61370;48.594;10.202;2022-07-15T03:31:27;5.07;;;1.88;;
73158;SDS011;61370;48.594;10.202;2022-07-15T03:33:53;5.05;;;1.60;;
73158;SDS011;61370;48.594;10.202;2022-07-15T03:36:24;4.95;;;1.60;;
73158;SDS011;61370;48.594;10.202;2022-07-15T03:38:51;4.03;;;1.42;;
73158;SDS011;61370;48.594;10.202;2022-07-15T03:41:18;5.53;;;1.58;;
73158;SDS011;61370;48.594;10.202;2022-07-15T03:43:45;5.25;;;1.60;;
73158;SDS011;61370;48.594;10.202;2022-07-15T03:46:12;3.03;;;1.45;;
73158;SDS011;61370;48.594;10.202;2022-07-15T03:48:46;7.32;;;1.73;;
73158;SDS011;61370;48.594;10.202;2022-07-15T03:51:13;7.80;;;1.90;;
73158;SDS011;61370;48.594;10.202;2022-07-15T03:53:39;4.10;;;1.90;;
73158;SDS011;61370;48.594;10.202;2022-07-15T03:56:06;3.90;;;1.60;;
73158;SDS011;61370;48.594;10.202;2022-07-15T03:58:32;9.65;;;2.00;;
73158;SDS011;61370;48.594;10.202;2022-07-15T04:00:59;5.68;;;2.08;;
73158;SDS011;61370;48.594;10.202;2022-07-15T04:03:27;7.22;;;2.22;;
73158;SDS011;61370;48.594;10.202;2022-07-15T04:05:53;6.45;;;1.75;;
73158;SDS011;61370;48.594;10.202;2022-07-15T04:08:19;4.63;;;1.73;;
73158;SDS011;61370;48.594;10.202;2022-07-15T04:10:46;4.53;;;1.73;;
73158;SDS011;61370;48.594;10.202;2022-07-15T04:13:12;5.32;;;1.70;;
73158;SDS011;61370;48.594;10.202;2022-07-15T04:15:39;5.80;;;2.08;;
73158;SDS011;61370;48.594;10.202;2022-07-15T04:18:05;11.52;;;1.98;;
73158;SDS011;61370;48.594;10.202;2022-07-15T04:20:32;6.63;;;2.60;;
73158;SDS011;61370;48.594;10.202;2022-07-15T04:23:00;4.65;;;1.95;;
73158;SDS011;61370;48.594;10.202;2022-07-15T04:25:27;7.03;;;1.70;;
73158;SDS011;61370;48.594;10.202;2022-07-15T04:27:53;5.88;;;1.80;;
73158;SDS011;61370;48.594;10.202;2022-07-15T04:30:26;9.68;;;2.13;;
73158;SDS011;61370;48.594;10.202;2022-07-15T04:32:54;6.35;;;1.80;;
73158;SDS011;61370;48.594;10.202;2022-07-15T04:35:23;4.65;;;2.00;;
73158;SDS011;61370;48.594;10.202;2022-07-15T04:37:57;4.15;;;2.10;;
73158;SDS011;61370;48.594;10.202;2022-07-15T04:40:24;9.68;;;2.00;;
73158;SDS011;61370;48.594;10.202;2022-07-15T04:42:52;4.72;;;1.75;;
73158;SDS011;61370;48.594;10.202;2022-07-15T04:45:19;5.38;;;1.85;;
73158;SDS011;61370;48.594;10.202;2022-07-15T04:47:45;4.57;;;1.70;;
73158;SDS011;61370;48.594;10.202;2022-07-15T04:50:17;5.10;;;1.58;;
73158;SDS011;61370;48.594;10.202;2022-07-15T04:53:02;5.72;;;1.80;;
73158;SDS011;61370;48.594;10.202;2022-07-15T04:55:28;4.63;;;1.75;;
73158;SDS011;61370;48.594;10.202;2022-07-15T04:58:02;4.68;;;1.98;;
73158;SDS011;61370;48.594;10.202;2022-07-15T05:00:29;4.65;;;1.65;;
73158;SDS011;61370;48.594;10.202;2022-07-15T05:02:55;6.18;;;2.00;;
73158;SDS011;61370;48.594;10.202;2022-07-15T05:05:22;7.10;;;1.95;;
73158;SDS011;61370;48.594;10.202;2022-07-15T05:07:50;6.63;;;1.95;;
73158;SDS011;61370;48.594;10.202;2022-07-15T05:10:17;5.13;;;1.60;;
73158;SDS011;61370;48.594;10.202;2022-07-15T05:12:54;4.40;;;1.60;;
73158;SDS011;61370;48.594;10.202;2022-07-15T05:15:21;6.28;;;1.80;;
73158;SDS011;61370;48.594;10.202;2022-07-15T05:17:47;4.85;;;1.88;;
73158;SDS011;61370;48.594;10.202;2022-07-15T05:20:19;7.25;;;1.80;;
73158;SDS011;61370;48.594;10.202;2022-07-15T05:22:47;4.40;;;1.52;;
73158;SDS011;61370;48.594;10.202;2022-07-15T05:25:15;4.57;;;1.50;;
73158;SDS011;61370;48.594;10.202;2022-07-15T05:27:43;4.10;;;1.38;;
73158;SDS011;61370;48.594;10.202;2022-07-15T05:30:10;7.00;;;1.70;;
73158;SDS011;61370;48.594;10.202;2022-07-15T05:32:39;3.42;;;1.45;;
73158;SDS011;61370;48.594;10.202;2022-07-15T05:35:16;4.03;;;1.40;;
73158;SDS011;61370;48.594;10.202;2022-07-15T05:37:45;3.90;;;1.63;;
73158;SDS011;61370;48.594;10.202;2022-07-15T05:40:23;7.13;;;2.13;;
73158;SDS011;61370;48.594;10.202;2022-07-15T05:42:57;5.57;;;1.60;;
73158;SDS011;61370;48.594;10.202;2022-07-15T05:45:30;4.80;;;1.50;;
73158;SDS011;61370;48.594;10.202;2022-07-15T05:48:03;3.85;;;1.50;;
73158;SDS011;61370;48.594;10.202;2022-07-15T05:50:45;4.72;;;1.60;;
73158;SDS011;61370;48.594;10.202;2022-07-15T05:53:19;8.35;;;2.20;;
73158;SDS011;61370;48.594;10.202;2022-07-15T05:55:55;5.75;;;1.63;;
73158;SDS011;61370;48.594;10.202;2022-07-15T05:58:28;4.90;;;1.90;;
73158;SDS011;61370;48.594;10.202;2022-07-15T06:00:55;5.38;;;1.70;;
73158;SDS011;61370;48.594;10.202;2022-07-15T06:03:26;5.63;;;1.90;;
73158;SDS011;61370;48.594;10.202;2022-07-15T06:05:53;4.72;;;1.65;;
73158;SDS011;61370;48.594;10.202;2022-07-15T06:08:24;4.32;;;1.65;;
73158;SDS011;61370;48.594;10.202;2022-07-15T06:10:51;4.88;;;1.90;;
73158;SDS011;61370;48.594;10.202;2022-07-15T06:18:43;4.45;;;2.03;;
73158;SDS011;61370;48.594;10.202;2022-07-15T06:21:10;4.55;;;1.60;;
73158;SDS011;61370;48.594;10.202;2022-07-15T06:26:33;5.45;;;1.88;;
73158;SDS011;61370;48.594;10.202;2022-07-15T06:28:59;3.28;;;1.67;;
73158;SDS011;61370;48.594;10.202;2022-07-15T06:31:26;5.57;;;1.90;;
73158;SDS011;61370;48.594;10.202;2022-07-15T06:33:53;5.20;;;1.80;;
73158;SDS011;61370;48.594;10.202;2022-07-15T06:36:19;6.53;;;1.80;;
73158;SDS011;61370;48.594;10.202;2022-07-15T06:38:46;5.93;;;1.90;;
73158;SDS011;61370;48.594;10.202;2022-07-15T06:41:16;7.53;;;2.42;;
73158;SDS011;61370;48.594;10.202;2022-07-15T06:43:44;4.25;;;1.80;;
73158;SDS011;61370;48.594;10.202;2022-07-15T06:46:26;7.30;;;1.90;;
73158;SDS011;61370;48.594;10.202;2022-07-15T06:48:52;5.65;;;1.95;;
73158;SDS011;61370;48.594;10.202;2022-07-15T06:51:19;4.20;;;1.85;;
73158;SDS011;61370;48.594;10.202;2022-07-15T06:53:47;4.75;;;1.80;;
73158;SDS011;61370;48.594;10.202;2022-07-15T06:56:13;7.28;;;1.80;;
73158;SDS011;61370;48.594;10.202;2022-07-15T06:58:40;4.45;;;1.90;;
73158;SDS011;61370;48.594;10.202;2022-07-15T07:01:07;5.55;;;2.30;;
73158;SDS011;61370;48.594;10.202;2022-07-15T07:03:33;5.75;;;2.10;;
73158;SDS011;61370;48.594;10.202;2022-07-15T07:06:00;6.40;;;2.20;;
73158;SDS011;61370;48.594;10.202;2022-07-15T07:08:27;6.40;;;2.10;;
73158;SDS011;61370;48.594;10.202;2022-07-15T07:10:53;5.97;;;2.33;;
73158;SDS011;61370;48.594;10.202;2022-07-15T07:13:20;5.90;;;2.50;;
73158;SDS011;61370;48.594;10.202;2022-07-15T07:15:46;5.05;;;2.10;;
73158;SDS011;61370;48.594;10.202;2022-07-15T07:18:13;6.75;;;2.45;;
73158;SDS011;61370;48.594;10.202;2022-07-15T07:20:39;6.28;;;2.33;;
73158;SDS011;61370;48.594;10.202;2022-07-15T07:23:10;4.60;;;2.30;;
73158;SDS011;61370;48.594;10.202;2022-07-15T07:25:39;6.38;;;2.33;;
73158;SDS011;61370;48.594;10.202;2022-07-15T07:28:06;5.82;;;2.15;;
73158;SDS011;61370;48.594;10.202;2022-07-15T07:30:32;4.85;;;2.22;;
73158;SDS011;61370;48.594;10.202;2022-07-15T07:33:00;4.00;;;2.20;;
73158;SDS011;61370;48.594;10.202;2022-07-15T07:35:26;4.88;;;2.20;;
73158;SDS011;61370;48.594;10.202;2022-07-15T07:37:53;6.78;;;2.40;;
73158;SDS011;61370;48.594;10.202;2022-07-15T07:40:20;5.13;;;2.30;;
73158;SDS011;61370;48.594;10.202;2022-07-15T07:42:46;5.90;;;2.35;;
73158;SDS011;61370;48.594;10.202;2022-07-15T07:45:13;7.43;;;2.25;;
73158;SDS011;61370;48.594;10.202;2022-07-15T07:47:39;5.60;;;2.58;;
73158;SDS011;61370;48.594;10.202;2022-07-15T07:50:07;5.20;;;2.63;;
73158;SDS011;61370;48.594;10.202;2022-07-15T07:52:34;8.10;;;2.35;;
73158;SDS011;61370;48.594;10.202;2022-07-15T07:55:01;6.65;;;2.20;;
73158;SDS011;61370;48.594;10.202;2022-07-15T07:57:27;3.95;;;2.08;;
73158;SDS011;61370;48.594;10.202;2022-07-15T07:59:54;4.25;;;2.20;;
73158;SDS011;61370;48.594;10.202;2022-07-15T08:02:20;5.80;;;2.53;;
73158;SDS011;61370;48.594;10.202;2022-07-15T08:04:47;5.80;;;2.50;;
73158;SDS011;61370;48.594;10.202;2022-07-15T08:07:13;6.60;;;2.13;;
73158;SDS011;61370;48.594;10.202;2022-07-15T08:09:40;5.07;;;2.40;;
73158;SDS011;61370;48.594;10.202;2022-07-15T08:12:06;6.38;;;2.58;;
73158;SDS011;61370;48.594;10.202;2022-07-15T08:14:33;4.20;;;2.03;;
73158;SDS011;61370;48.594;10.202;2022-07-15T08:17:00;5.20;;;2.50;;
73158;SDS011;61370;48.594;10.202;2022-07-15T08:19:26;6.72;;;3.00;;
73158;SDS011;61370;48.594;10.202;2022-07-15T08:21:53;5.32;;;2.28;;
73158;SDS011;61370;48.594;10.202;2022-07-15T08:24:19;5.10;;;2.28;;
73158;SDS011;61370;48.594;10.202;2022-07-15T08:26:46;4.50;;;2.13;;
73158;SDS011;61370;48.594;10.202;2022-07-15T08:29:12;7.15;;;2.45;;
73158;SDS011;61370;48.594;10.202;2022-07-15T08:31:39;5.75;;;2.25;;
73158;SDS011;61370;48.594;10.202;2022-07-15T08:34:08;5.05;;;1.98;;
73158;SDS011;61370;48.594;10.202;2022-07-15T08:36:35;5.55;;;2.20;;
73158;SDS011;61370;48.594;10.202;2022-07-15T08:39:02;5.80;;;2.00;;
73158;SDS011;61370;48.594;10.202;2022-07-15T08:41:29;4.85;;;2.00;;
73158;SDS011;61370;48.594;10.202;2022-07-15T08:43:55;4.68;;;2.08;;
73158;SDS011;61370;48.594;10.202;2022-07-15T08:46:23;7.00;;;2.38;;
73158;SDS011;61370;48.594;10.202;2022-07-15T08:48:52;4.47;;;2.30;;
73158;SDS011;61370;48.594;10.202;2022-07-15T08:51:21;5.88;;;2.78;;
73158;SDS011;61370;48.594;10.202;2022-07-15T08:53:50;6.35;;;2.10;;
73158;SDS011;61370;48.594;10.202;2022-07-15T08:56:18;5.43;;;2.15;;
73158;SDS011;61370;48.594;10.202;2022-07-15T08:58:45;4.90;;;1.95;;
73158;SDS011;61370;48.594;10.202;2022-07-15T09:01:12;5.32;;;2.28;;
73158;SDS011;61370;48.594;10.202;2022-07-15T09:03:38;5.75;;;2.13;;
73158;SDS011;61370;48.594;10.202;2022-07-15T09:06:05;6.05;;;2.10;;
73158;SDS011;61370;48.594;10.202;2022-07-15T09:08:31;3.70;;;1.92;;
73158;SDS011;61370;48.594;10.202;2022-07-15T09:11:00;4.38;;;2.58;;
73158;SDS011;61370;48.594;10.202;2022-07-15T09:13:34;5.55;;;2.28;;
73158;SDS011;61370;48.594;10.202;2022-07-15T09:18:32;4.45;;;1.90;;
73158;SDS011;61370;48.594;10.202;2022-07-15T09:21:01;6.00;;;2.03;;
73158;SDS011;61370;48.594;10.202;2022-07-15T09:23:29;7.07;;;2.00;;
73158;SDS011;61370;48.594;10.202;2022-07-15T09:26:21;5.22;;;2.10;;
73158;SDS011;61370;48.594;10.202;2022-07-15T09:28:50;4.63;;;2.15;;
73158;SDS011;61370;48.594;10.202;2022-07-15T09:31:27;5.40;;;2.40;;
73158;SDS011;61370;48.594;10.202;2022-07-15T09:34:14;4.65;;;2.00;;
73158;SDS011;61370;48.594;10.202;2022-07-15T09:36:42;4.43;;;2.20;;
73158;SDS011;61370;48.594;10.202;2022-07-15T09:39:11;5.03;;;2.10;;
73158;SDS011;61370;48.594;10.202;2022-07-15T09:41:39;6.03;;;2.20;;
73158;SDS011;61370;48.594;10.202;2022-07-15T09:44:11;4.43;;;2.08;;
73158;SDS011;61370;48.594;10.202;2022-07-15T09:49:39;3.92;;;2.00;;
73158;SDS011;61370;48.594;10.202;2022-07-15T09:52:08;5.50;;;2.05;;
73158;SDS011;61370;48.594;10.202;2022-07-15T09:54:37;4.47;;;2.15;;
73158;SDS011;61370;48.594;10.202;2022-07-15T09:57:05;4.45;;;2.28;;
73158;SDS011;61370;48.594;10.202;2022-07-15T09:59:33;5.28;;;2.25;;
73158;SDS011;61370;48.594;10.202;2022-07-15T10:02:00;5.30;;;2.00;;
73158;SDS011;61370;48.594;10.202;2022-07-15T10:04:27;7.30;;;2.30;;
73158;SDS011;61370;48.594;10.202;2022-07-15T10:06:55;6.95;;;2.45;;
73158;SDS011;61370;48.594;10.202;2022-07-15T10:09:23;4.63;;;2.20;;
73158;SDS011;61370;48.594;10.202;2022-07-15T10:11:53;4.95;;;2.22;;
73158;SDS011;61370;48.594;10.202;2022-07-15T10:14:32;5.60;;;2.40;;
73158;SDS011;61370;48.594;10.202;2022-07-15T10:26:25;5.47;;;2.22;;
73158;SDS011;61370;48.594;10.202;2022-07-15T10:39:13;6.35;;;2.50;;
73158;SDS011;61370;48.594;10.202;2022-07-15T10:41:48;5.65;;;2.50;;
73158;SDS011;61370;48.594;10.202;2022-07-15T10:44:17;5.45;;;2.42;;
73158;SDS011;61370;48.594;10.202;2022-07-15T10:46:43;4.95;;;2.10;;
73158;SDS011;61370;48.594;10.202;2022-07-15T10:54:06;5.38;;;2.40;;
73158;SDS011;61370;48.594;10.202;2022-07-15T10:56:36;5.63;;;2.67;;
73158;SDS011;61370;48.594;10.202;2022-07-15T10:59:18;6.43;;;2.45;;
73158;SDS011;61370;48.594;10.202;2022-07-15T11:01:47;4.70;;;2.70;;
73158;SDS011;61370;48.594;10.202;2022-07-15T11:04:36;6.25;;;2.22;;
73158;SDS011;61370;48.594;10.202;2022-07-15T11:14:58;4.82;;;2.40;;
73158;SDS011;61370;48.594;10.202;2022-07-15T11:19:59;5.60;;;2.22;;
73158;SDS011;61370;48.594;10.202;2022-07-15T11:22:38;5.13;;;2.22;;
73158;SDS011;61370;48.594;10.202;2022-07-15T11:25:16;5.20;;;2.20;;
73158;SDS011;61370;48.594;10.202;2022-07-15T11:27:56;5.15;;;2.30;;
73158;SDS011;61370;48.594;10.202;2022-07-15T11:30:49;5.50;;;2.20;;
73158;SDS011;61370;48.594;10.202;2022-07-15T11:33:23;7.70;;;2.75;;
73158;SDS011;61370;48.594;10.202;2022-07-15T11:35:58;4.20;;;2.22;;
73158;SDS011;61370;48.594;10.202;2022-07-15T11:38:30;5.50;;;2.50;;
73158;SDS011;61370;48.594;10.202;2022-07-15T11:41:00;5.35;;;2.25;;
73158;SDS011;61370;48.594;10.202;2022-07-15T11:44:00;4.55;;;2.08;;
73158;SDS011;61370;48.594;10.202;2022-07-15T11:46:53;5.10;;;2.40;;
73158;SDS011;61370;48.594;10.202;2022-07-15T11:49:25;4.93;;;2.25;;
73158;SDS011;61370;48.594;10.202;2022-07-15T11:51:55;4.63;;;2.40;;
73158;SDS011;61370;48.594;10.202;2022-07-15T11:54:31;5.07;;;2.38;;
73158;SDS011;61370;48.594;10.202;2022-07-15T11:57:03;4.88;;;2.30;;
73158;SDS011;61370;48.594;10.202;2022-07-15T12:05:10;4.85;;;2.28;;
73158;SDS011;61370;48.594;10.202;2022-07-15T12:07:44;5.57;;;2.20;;
73158;SDS011;61370;48.594;10.202;2022-07-15T12:10:16;4.45;;;2.20;;
73158;SDS011;61370;48.594;10.202;2022-07-15T12:13:02;7.30;;;2.20;;
73158;SDS011;61370;48.594;10.202;2022-07-15T12:15:34;4.30;;;2.50;;
73158;SDS011;61370;48.594;10.202;2022-07-15T12:18:02;3.95;;;2.05;;
73158;SDS011;61370;48.594;10.202;2022-07-15T12:20:31;4.40;;;2.20;;
73158;SDS011;61370;48.594;10.202;2022-07-15T12:23:06;5.68;;;2.30;;
73158;SDS011;61370;48.594;10.202;2022-07-15T12:25:34;4.75;;;2.38;;
73158;SDS011;61370;48.594;10.202;2022-07-15T12:28:01;4.47;;;2.53;;
73158;SDS011;61370;48.594;10.202;2022-07-15T12:30:35;4.13;;;2.20;;
73158;SDS011;61370;48.594;10.202;2022-07-15T12:36:15;5.07;;;2.53;;
73158;SDS011;61370;48.594;10.202;2022-07-15T12:38:44;5.20;;;2.25;;
73158;SDS011;61370;48.594;10.202;2022-07-15T12:41:24;4.13;;;2.00;;
73158;SDS011;61370;48.594;10.202;2022-07-15T12:43:52;5.80;;;2.20;;
73158;SDS011;61370;48.594;10.202;2022-07-15T12:48:48;4.80;;;2.10;;
73158;SDS011;61370;48.594;10.202;2022-07-15T12:51:16;4.80;;;2.15;;
73158;SDS011;61370;48.594;10.202;2022-07-15T12:53:43;4.93;;;2.20;;
73158;SDS011;61370;48.594;10.202;2022-07-15T12:56:10;6.00;;;2.10;;
73158;SDS011;61370;48.594;10.202;2022-07-15T12:58:37;4.68;;;2.20;;
73158;SDS011;61370;48.594;10.202;2022-07-15T13:01:08;4.28;;;1.98;;
73158;SDS011;61370;48.594;10.202;2022-07-15T13:03:35;4.50;;;2.10;;
73158;SDS011;61370;48.594;10.202;2022-07-15T13:06:06;3.67;;;2.03;;
73158;SDS011;61370;48.594;10.202;2022-07-15T13:08:34;4.03;;;2.22;;
73158;SDS011;61370;48.594;10.202;2022-07-15T13:11:04;5.53;;;2.50;;
73158;SDS011;61370;48.594;10.202;2022-07-15T13:13:33;7.50;;;2.40;;
73158;SDS011;61370;48.594;10.202;2022-07-15T13:16:01;3.67;;;2.10;;
73158;SDS011;61370;48.594;10.202;2022-07-15T13:18:29;4.63;;;2.03;;
73158;SDS011;61370;48.594;10.202;2022-07-15T13:20:56;3.22;;;1.88;;
73158;SDS011;61370;48.594;10.202;2022-07-15T13:23:23;3.97;;;2.03;;
73158;SDS011;61370;48.594;10.202;2022-07-15T13:25:50;4.78;;;2.00;;
73158;SDS011;61370;48.594;10.202;2022-07-15T13:28:19;4.43;;;2.33;;
73158;SDS011;61370;48.594;10.202;2022-07-15T13:30:46;4.05;;;2.10;;
73158;SDS011;61370;48.594;10.202;2022-07-15T13:33:13;8.18;;;2.55;;
73158;SDS011;61370;48.594;10.202;2022-07-15T13:35:40;5.43;;;2.00;;
73158;SDS011;61370;48.594;10.202;2022-07-15T13:38:06;5.78;;;3.03;;
73158;SDS011;61370;48.594;10.202;2022-07-15T13:40:33;5.43;;;2.17;;
73158;SDS011;61370;48.594;10.202;2022-07-15T13:42:59;4.20;;;2.00;;
73158;SDS011;61370;48.594;10.202;2022-07-15T13:45:26;4.32;;;2.38;;
73158;SDS011;61370;48.594;10.202;2022-07-15T13:47:52;4.80;;;1.80;;
73158;SDS011;61370;48.594;10.202;2022-07-15T13:50:19;4.30;;;2.30;;
73158;SDS011;61370;48.594;10.202;2022-07-15T13:53:04;5.80;;;2.22;;
73158;SDS011;61370;48.594;10.202;2022-07-15T13:55:31;4.65;;;2.10;;
73158;SDS011;61370;48.594;10.202;2022-07-15T13:58:01;4.60;;;2.20;;
73158;SDS011;61370;48.594;10.202;2022-07-15T14:00:27;3.72;;;2.17;;
73158;SDS011;61370;48.594;10.202;2022-07-15T14:02:54;3.38;;;1.85;;
73158;SDS011;61370;48.594;10.202;2022-07-15T14:05:21;3.95;;;2.10;;
73158;SDS011;61370;48.594;10.202;2022-07-15T14:07:48;3.70;;;1.90;;
73158;SDS011;61370;48.594;10.202;2022-07-15T14:10:15;3.88;;;2.00;;
73158;SDS011;61370;48.594;10.202;2022-07-15T14:12:42;3.92;;;1.88;;
73158;SDS011;61370;48.594;10.202;2022-07-15T14:15:09;4.65;;;2.25;;
73158;SDS011;61370;48.594;10.202;2022-07-15T14:17:35;4.18;;;2.10;;
73158;SDS011;61370;48.594;10.202;2022-07-15T14:20:02;4.18;;;2.03;;
73158;SDS011;61370;48.594;10.202;2022-07-15T14:22:30;3.80;;;1.98;;
73158;SDS011;61370;48.594;10.202;2022-07-15T14:24:58;3.72;;;1.67;;
73158;SDS011;61370;48.594;10.202;2022-07-15T14:27:24;4.30;;;1.73;;
73158;SDS011;61370;48.594;10.202;2022-07-15T14:29:51;5.18;;;2.08;;
73158;SDS011;61370;48.594;10.202;2022-07-15T14:32:21;3.90;;;1.85;;
73158;SDS011;61370;48.594;10.202;2022-07-15T14:34:47;5.68;;;2.35;;
73158;SDS011;61370;48.594;10.202;2022-07-15T14:37:13;5.95;;;2.00;;
73158;SDS011;61370;48.594;10.202;2022-07-15T14:39:40;4.13;;;1.85;;
73158;SDS011;61370;48.594;10.202;2022-07-15T14:42:06;7.20;;;2.00;;
73158;SDS011;61370;48.594;10.202;2022-07-15T14:44:33;4.57;;;2.38;;
73158;SDS011;61370;48.594;10.202;2022-07-15T14:46:59;3.95;;;2.08;;
73158;SDS011;61370;48.594;10.202;2022-07-15T14:49:26;3.90;;;1.95;;
73158;SDS011;61370;48.594;10.202;2022-07-15T14:51:52;5.47;;;1.88;;
73158;SDS011;61370;48.594;10.202;2022-07-15T14:54:19;3.83;;;2.10;;
73158;SDS011;61370;48.594;10.202;2022-07-15T14:56:45;6.55;;;1.92;;
73158;SDS011;61370;48.594;10.202;2022-07-15T14:59:11;4.28;;;2.00;;
73158;SDS011;61370;48.594;10.202;2022-07-15T15:01:38;4.82;;;2.10;;
73158;SDS011;61370;48.594;10.202;2022-07-15T15:04:05;4.38;;;1.92;;
73158;SDS011;61370;48.594;10.202;2022-07-15T15:06:31;4.50;;;1.80;;
73158;SDS011;61370;48.594;10.202;2022-07-15T15:08:58;3.75;;;1.98;;
73158;SDS011;61370;48.594;10.202;2022-07-15T15:11:25;4.60;;;2.13;;
73158;SDS011;61370;48.594;10.202;2022-07-15T15:13:51;3.53;;;2.10;;
73158;SDS011;61370;48.594;10.202;2022-07-15T15:16:18;3.95;;;2.05;;
73158;SDS011;61370;48.594;10.202;2022-07-15T15:18:44;5.93;;;2.50;;
73158;SDS011;61370;48.594;10.202;2022-07-15T15:21:11;4.32;;;2.20;;
73158;SDS011;61370;48.594;10.202;2022-07-15T15:23:37;4.03;;;1.80;;
73158;SDS011;61370;48.594;10.202;2022-07-15T15:26:04;4.40;;;2.00;;
73158;SDS011;61370;48.594;10.202;2022-07-15T15:28:49;3.60;;;2.10;;
73158;SDS011;61370;48.594;10.202;2022-07-15T15:31:16;3.92;;;1.98;;
73158;SDS011;61370;48.594;10.202;2022-07-15T15:33:42;5.25;;;2.10;;
73158;SDS011;61370;48.594;10.202;2022-07-15T15:36:09;3.03;;;1.90;;
73158;SDS011;61370;48.594;10.202;2022-07-15T15:38:36;4.10;;;2.00;;
73158;SDS011;61370;48.594;10.202;2022-07-15T15:41:02;3.90;;;2.03;;
73158;SDS011;61370;48.594;10.202;2022-07-15T15:43:29;5.63;;;2.13;;